sensor_id;sensor_type;location;lat;lon;timestamp;temperature;humidity
23291;DHT22;11814;44.686;10.842;2024-01-15T00:02:24;3.20;99.90
23291;DHT22;11814;44.686;10.842;2024-01-15T00:04:50;3.20;99.90
23291;DHT22;11814;44.686;10.842;2024-01-15T00:07:15;3.20;99.90
23291;DHT22;11814;44.686;10.842;2024-01-15T00:09:41;3.20;99.90
23291;DHT22;11814;44.686;10.842;2024-01-15T00:12:07;3.20;99.90
23291;DHT22;11814;44.686;10.842;2024-01-15T00:14:32;3.20;99.90
23291;DHT22;11814;44.686;10.842;2024-01-15T00:16:58;3.20;99.90
23291;DHT22;11814;44.686;10.842;2024-01-15T00:19:24;3.20;99.90
23291;DHT22;11814;44.686;10.842;2024-01-15T00:21:50;3.20;99.90
23291;DHT22;11814;44.686;10.842;2024-01-15T00:24:16;3.20;99.90
23291;DHT22;11814;44.686;10.842;2024-01-15T00:26:41;3.20;99.90
23291;DHT22;11814;44.686;10.842;2024-01-15T00:29:32;3.20;99.90
23291;DHT22;11814;44.686;10.842;2024-01-15T00:31:57;3.30;99.90
23291;DHT22;11814;44.686;10.842;2024-01-15T00:34:23;3.30;99.90
23291;DHT22;11814;44.686;10.842;2024-01-15T00:36:48;3.20;99.90
23291;DHT22;11814;44.686;10.842;2024-01-15T00:39:14;3.20;99.90
23291;DHT22;11814;44.686;10.842;2024-01-15T00:41:43;3.20;99.90
23291;DHT22;11814;44.686;10.842;2024-01-15T00:44:09;3.30;99.90
23291;DHT22;11814;44.686;10.842;2024-01-15T00:46:45;3.30;99.90
23291;DHT22;11814;44.686;10.842;2024-01-15T00:49:14;3.30;99.90
23291;DHT22;11814;44.686;10.842;2024-01-15T00:51:40;3.40;99.90
23291;DHT22;11814;44.686;10.842;2024-01-15T00:54:06;3.40;99.90
23291;DHT22;11814;44.686;10.842;2024-01-15T00:56:31;3.40;99.90
23291;DHT22;11814;44.686;10.842;2024-01-15T00:58:57;3.30;99.90
23291;DHT22;11814;44.686;10.842;2024-01-15T01:01:23;3.30;99.90
23291;DHT22;11814;44.686;10.842;2024-01-15T01:03:48;3.40;99.90
23291;DHT22;11814;44.686;10.842;2024-01-15T01:06:14;3.40;99.90
23291;DHT22;11814;44.686;10.842;2024-01-15T01:08:39;3.50;99.90
23291;DHT22;11814;44.686;10.842;2024-01-15T01:11:05;3.60;99.90
23291;DHT22;11814;44.686;10.842;2024-01-15T01:13:32;3.50;99.90
23291;DHT22;11814;44.686;10.842;2024-01-15T01:15:58;3.50;99.90
23291;DHT22;11814;44.686;10.842;2024-01-15T01:18:24;3.50;99.90
23291;DHT22;11814;44.686;10.842;2024-01-15T01:20:52;3.50;99.90
23291;DHT22;11814;44.686;10.842;2024-01-15T01:23:18;3.50;99.90
23291;DHT22;11814;44.686;10.842;2024-01-15T01:25:43;3.60;99.90
23291;DHT22;11814;44.686;10.842;2024-01-15T01:28:09;3.60;99.90
23291;DHT22;11814;44.686;10.842;2024-01-15T01:30:37;3.60;99.90
23291;DHT22;11814;44.686;10.842;2024-01-15T01:33:03;3.60;99.90
23291;DHT22;11814;44.686;10.842;2024-01-15T01:35:29;3.60;99.90
23291;DHT22;11814;44.686;10.842;2024-01-15T01:37:54;3.50;99.90
23291;DHT22;11814;44.686;10.842;2024-01-15T01:40:20;3.50;99.90
23291;DHT22;11814;44.686;10.842;2024-01-15T01:42:45;3.50;99.90
23291;DHT22;11814;44.686;10.842;2024-01-15T01:45:11;3.40;99.90
23291;DHT22;11814;44.686;10.842;2024-01-15T01:47:37;3.50;99.90
23291;DHT22;11814;44.686;10.842;2024-01-15T01:50:04;3.50;99.90
23291;DHT22;11814;44.686;10.842;2024-01-15T01:52:31;3.50;99.90
23291;DHT22;11814;44.686;10.842;2024-01-15T01:54:57;3.40;99.90
23291;DHT22;11814;44.686;10.842;2024-01-15T01:57:24;3.40;99.90
23291;DHT22;11814;44.686;10.842;2024-01-15T01:59:50;3.50;99.90
23291;DHT22;11814;44.686;10.842;2024-01-15T02:02:16;3.50;99.90
23291;DHT22;11814;44.686;10.842;2024-01-15T02:04:42;3.50;99.90
23291;DHT22;11814;44.686;10.842;2024-01-15T02:07:08;3.60;99.90
23291;DHT22;11814;44.686;10.842;2024-01-15T02:09:35;3.50;99.90
23291;DHT22;11814;44.686;10.842;2024-01-15T02:12:01;3.50;99.90
23291;DHT22;11814;44.686;10.842;2024-01-15T02:14:27;3.60;99.90
23291;DHT22;11814;44.686;10.842;2024-01-15T02:16:52;3.50;99.90
23291;DHT22;11814;44.686;10.842;2024-01-15T02:19:18;3.50;99.90
23291;DHT22;11814;44.686;10.842;2024-01-15T02:21:44;3.50;99.90
23291;DHT22;11814;44.686;10.842;2024-01-15T02:24:10;3.60;99.90
23291;DHT22;11814;44.686;10.842;2024-01-15T02:26:36;3.50;99.90
23291;DHT22;11814;44.686;10.842;2024-01-15T02:29:04;3.50;99.90
23291;DHT22;11814;44.686;10.842;2024-01-15T02:31:30;3.40;99.90
23291;DHT22;11814;44.686;10.842;2024-01-15T02:33:55;3.50;99.90
23291;DHT22;11814;44.686;10.842;2024-01-15T02:36:21;3.50;99.90
23291;DHT22;11814;44.686;10.842;2024-01-15T02:38:46;3.50;99.90
23291;DHT22;11814;44.686;10.842;2024-01-15T02:41:12;3.50;99.90
23291;DHT22;11814;44.686;10.842;2024-01-15T02:43:40;3.60;99.90
23291;DHT22;11814;44.686;10.842;2024-01-15T02:46:06;3.60;99.90
23291;DHT22;11814;44.686;10.842;2024-01-15T02:48:32;3.60;99.90
23291;DHT22;11814;44.686;10.842;2024-01-15T02:50:58;3.60;99.90
23291;DHT22;11814;44.686;10.842;2024-01-15T02:53:24;3.60;99.90
23291;DHT22;11814;44.686;10.842;2024-01-15T02:55:50;3.60;99.90
23291;DHT22;11814;44.686;10.842;2024-01-15T02:58:15;3.60;99.90
23291;DHT22;11814;44.686;10.842;2024-01-15T03:00:41;3.60;99.90
23291;DHT22;11814;44.686;10.842;2024-01-15T03:03:07;3.60;99.90
23291;DHT22;11814;44.686;10.842;2024-01-15T03:05:33;3.60;99.90
23291;DHT22;11814;44.686;10.842;2024-01-15T03:07:59;3.60;99.90
23291;DHT22;11814;44.686;10.842;2024-01-15T03:10:27;3.60;99.90
23291;DHT22;11814;44.686;10.842;2024-01-15T03:12:53;3.60;99.90
23291;DHT22;11814;44.686;10.842;2024-01-15T03:15:18;3.60;99.90
23291;DHT22;11814;44.686;10.842;2024-01-15T03:17:44;3.50;99.90
23291;DHT22;11814;44.686;10.842;2024-01-15T03:20:10;3.50;99.90
23291;DHT22;11814;44.686;10.842;2024-01-15T03:22:36;3.60;99.90
23291;DHT22;11814;44.686;10.842;2024-01-15T03:25:03;3.60;99.90
23291;DHT22;11814;44.686;10.842;2024-01-15T03:27:29;3.60;99.90
23291;DHT22;11814;44.686;10.842;2024-01-15T03:29:54;3.60;99.90
23291;DHT22;11814;44.686;10.842;2024-01-15T03:32:20;3.60;99.90
23291;DHT22;11814;44.686;10.842;2024-01-15T03:34:49;3.70;99.90
23291;DHT22;11814;44.686;10.842;2024-01-15T03:37:14;3.70;99.90
23291;DHT22;11814;44.686;10.842;2024-01-15T03:39:40;3.70;99.90
23291;DHT22;11814;44.686;10.842;2024-01-15T03:42:06;3.70;99.90
23291;DHT22;11814;44.686;10.842;2024-01-15T03:44:32;3.80;99.90
23291;DHT22;11814;44.686;10.842;2024-01-15T03:46:57;3.70;99.90
23291;DHT22;11814;44.686;10.842;2024-01-15T03:49:23;3.70;99.90
23291;DHT22;11814;44.686;10.842;2024-01-15T03:51:49;3.70;99.90
23291;DHT22;11814;44.686;10.842;2024-01-15T03:54:14;3.70;99.90
23291;DHT22;11814;44.686;10.842;2024-01-15T03:56:40;3.70;99.90
23291;DHT22;11814;44.686;10.842;2024-01-15T03:59:05;3.70;99.90
23291;DHT22;11814;44.686;10.842;2024-01-15T04:01:31;3.80;99.90
23291;DHT22;11814;44.686;10.842;2024-01-15T04:03:57;3.70;99.90
23291;DHT22;11814;44.686;10.842;2024-01-15T04:06:22;3.70;99.90
23291;DHT22;11814;44.686;10.842;2024-01-15T04:08:48;3.70;99.90
23291;DHT22;11814;44.686;10.842;2024-01-15T04:11:13;3.70;99.90
23291;DHT22;11814;44.686;10.842;2024-01-15T04:13:39;3.80;99.90
23291;DHT22;11814;44.686;10.842;2024-01-15T04:16:05;3.80;99.90
23291;DHT22;11814;44.686;10.842;2024-01-15T04:18:30;3.80;99.90
23291;DHT22;11814;44.686;10.842;2024-01-15T04:20:56;3.80;99.90
23291;DHT22;11814;44.686;10.842;2024-01-15T04:23:21;3.80;99.90
23291;DHT22;11814;44.686;10.842;2024-01-15T04:25:47;3.80;99.90
23291;DHT22;11814;44.686;10.842;2024-01-15T04:28:13;3.80;99.90
23291;DHT22;11814;44.686;10.842;2024-01-15T04:30:38;3.80;99.90
23291;DHT22;11814;44.686;10.842;2024-01-15T04:33:04;3.70;99.90
23291;DHT22;11814;44.686;10.842;2024-01-15T04:35:31;3.70;99.90
23291;DHT22;11814;44.686;10.842;2024-01-15T04:37:56;3.70;99.90
23291;DHT22;11814;44.686;10.842;2024-01-15T04:40:22;3.80;99.90
23291;DHT22;11814;44.686;10.842;2024-01-15T04:42:47;3.80;99.90
23291;DHT22;11814;44.686;10.842;2024-01-15T04:45:13;3.80;99.90
23291;DHT22;11814;44.686;10.842;2024-01-15T04:47:39;3.80;99.90
23291;DHT22;11814;44.686;10.842;2024-01-15T04:50:05;3.90;99.90
23291;DHT22;11814;44.686;10.842;2024-01-15T04:52:31;3.90;99.90
23291;DHT22;11814;44.686;10.842;2024-01-15T04:54:56;3.80;99.90
23291;DHT22;11814;44.686;10.842;2024-01-15T04:57:22;3.80;99.90
23291;DHT22;11814;44.686;10.842;2024-01-15T04:59:48;3.80;99.90
23291;DHT22;11814;44.686;10.842;2024-01-15T05:02:13;3.80;99.90
23291;DHT22;11814;44.686;10.842;2024-01-15T05:04:39;3.80;99.90
23291;DHT22;11814;44.686;10.842;2024-01-15T05:07:05;3.80;99.90
23291;DHT22;11814;44.686;10.842;2024-01-15T05:09:30;3.80;99.90
23291;DHT22;11814;44.686;10.842;2024-01-15T05:11:56;3.90;99.90
23291;DHT22;11814;44.686;10.842;2024-01-15T05:14:21;3.90;99.90
23291;DHT22;11814;44.686;10.842;2024-01-15T05:16:48;4.00;99.90
23291;DHT22;11814;44.686;10.842;2024-01-15T05:19:14;4.00;99.90
23291;DHT22;11814;44.686;10.842;2024-01-15T05:21:40;3.90;99.90
23291;DHT22;11814;44.686;10.842;2024-01-15T05:24:09;4.00;99.90
23291;DHT22;11814;44.686;10.842;2024-01-15T05:26:35;4.00;99.90
23291;DHT22;11814;44.686;10.842;2024-01-15T05:29:00;3.90;99.90
23291;DHT22;11814;44.686;10.842;2024-01-15T05:31:26;3.90;99.90
23291;DHT22;11814;44.686;10.842;2024-01-15T05:33:51;3.90;99.90
23291;DHT22;11814;44.686;10.842;2024-01-15T05:36:17;3.90;99.90
23291;DHT22;11814;44.686;10.842;2024-01-15T05:38:42;3.90;99.90
23291;DHT22;11814;44.686;10.842;2024-01-15T05:41:08;3.90;99.90
23291;DHT22;11814;44.686;10.842;2024-01-15T05:43:34;3.90;99.90
23291;DHT22;11814;44.686;10.842;2024-01-15T05:45:59;3.90;99.90
23291;DHT22;11814;44.686;10.842;2024-01-15T05:48:25;3.90;99.90
23291;DHT22;11814;44.686;10.842;2024-01-15T05:50:51;3.90;99.90
23291;DHT22;11814;44.686;10.842;2024-01-15T05:53:16;4.00;99.90
23291;DHT22;11814;44.686;10.842;2024-01-15T05:55:42;4.10;99.90
23291;DHT22;11814;44.686;10.842;2024-01-15T05:58:07;4.00;99.90
23291;DHT22;11814;44.686;10.842;2024-01-15T06:00:33;4.00;99.90
23291;DHT22;11814;44.686;10.842;2024-01-15T06:03:00;4.00;99.90
23291;DHT22;11814;44.686;10.842;2024-01-15T06:05:26;4.00;99.90
23291;DHT22;11814;44.686;10.842;2024-01-15T06:07:52;4.00;99.90
23291;DHT22;11814;44.686;10.842;2024-01-15T06:10:17;4.00;99.90
23291;DHT22;11814;44.686;10.842;2024-01-15T06:12:44;4.00;99.90
23291;DHT22;11814;44.686;10.842;2024-01-15T06:15:09;3.90;99.90
23291;DHT22;11814;44.686;10.842;2024-01-15T06:17:35;4.00;99.90
23291;DHT22;11814;44.686;10.842;2024-01-15T06:20:01;4.00;99.90
23291;DHT22;11814;44.686;10.842;2024-01-15T06:22:27;4.00;99.90
23291;DHT22;11814;44.686;10.842;2024-01-15T06:24:53;3.90;99.90
23291;DHT22;11814;44.686;10.842;2024-01-15T06:27:18;3.90;99.90
23291;DHT22;11814;44.686;10.842;2024-01-15T06:29:47;4.00;99.90
23291;DHT22;11814;44.686;10.842;2024-01-15T06:32:13;3.90;99.90
23291;DHT22;11814;44.686;10.842;2024-01-15T06:34:39;4.00;99.90
23291;DHT22;11814;44.686;10.842;2024-01-15T06:37:05;4.00;99.90
23291;DHT22;11814;44.686;10.842;2024-01-15T06:39:30;4.00;99.90
23291;DHT22;11814;44.686;10.842;2024-01-15T06:41:56;4.00;99.90
23291;DHT22;11814;44.686;10.842;2024-01-15T06:44:21;4.00;99.90
23291;DHT22;11814;44.686;10.842;2024-01-15T06:46:47;4.00;99.90
23291;DHT22;11814;44.686;10.842;2024-01-15T06:49:13;4.00;99.90
23291;DHT22;11814;44.686;10.842;2024-01-15T06:51:39;4.00;99.90
23291;DHT22;11814;44.686;10.842;2024-01-15T06:54:05;3.90;99.90
23291;DHT22;11814;44.686;10.842;2024-01-15T06:56:31;3.90;99.90
23291;DHT22;11814;44.686;10.842;2024-01-15T06:58:57;3.90;99.90
23291;DHT22;11814;44.686;10.842;2024-01-15T07:01:23;3.90;99.90
23291;DHT22;11814;44.686;10.842;2024-01-15T07:03:48;3.90;99.90
23291;DHT22;11814;44.686;10.842;2024-01-15T07:06:14;3.90;99.90
23291;DHT22;11814;44.686;10.842;2024-01-15T07:08:40;4.00;99.90
23291;DHT22;11814;44.686;10.842;2024-01-15T07:11:06;3.90;99.90
23291;DHT22;11814;44.686;10.842;2024-01-15T07:13:32;4.00;99.90
23291;DHT22;11814;44.686;10.842;2024-01-15T07:15:58;4.00;99.90
23291;DHT22;11814;44.686;10.842;2024-01-15T07:18:24;4.00;99.90
23291;DHT22;11814;44.686;10.842;2024-01-15T07:20:50;4.00;99.90
23291;DHT22;11814;44.686;10.842;2024-01-15T07:23:15;4.00;99.90
23291;DHT22;11814;44.686;10.842;2024-01-15T07:25:42;4.00;99.90
23291;DHT22;11814;44.686;10.842;2024-01-15T07:28:08;4.10;99.90
23291;DHT22;11814;44.686;10.842;2024-01-15T07:30:33;4.10;99.90
23291;DHT22;11814;44.686;10.842;2024-01-15T07:32:59;4.20;99.90
23291;DHT22;11814;44.686;10.842;2024-01-15T07:35:25;4.20;99.90
23291;DHT22;11814;44.686;10.842;2024-01-15T07:37:50;4.20;99.90
23291;DHT22;11814;44.686;10.842;2024-01-15T07:40:16;4.30;99.90
23291;DHT22;11814;44.686;10.842;2024-01-15T07:42:42;4.20;99.90
23291;DHT22;11814;44.686;10.842;2024-01-15T07:45:11;4.20;99.90
23291;DHT22;11814;44.686;10.842;2024-01-15T07:47:37;4.30;99.90
23291;DHT22;11814;44.686;10.842;2024-01-15T07:50:03;4.30;99.90
23291;DHT22;11814;44.686;10.842;2024-01-15T07:52:30;4.40;99.90
23291;DHT22;11814;44.686;10.842;2024-01-15T07:54:56;4.40;99.90
23291;DHT22;11814;44.686;10.842;2024-01-15T07:57:22;4.40;99.90
23291;DHT22;11814;44.686;10.842;2024-01-15T07:59:48;4.40;99.90
23291;DHT22;11814;44.686;10.842;2024-01-15T08:02:14;4.50;99.90
23291;DHT22;11814;44.686;10.842;2024-01-15T08:04:39;4.50;99.90
23291;DHT22;11814;44.686;10.842;2024-01-15T08:07:05;4.60;99.90
23291;DHT22;11814;44.686;10.842;2024-01-15T08:09:32;4.50;99.90
23291;DHT22;11814;44.686;10.842;2024-01-15T08:11:58;4.60;99.90
23291;DHT22;11814;44.686;10.842;2024-01-15T08:14:23;4.60;99.90
23291;DHT22;11814;44.686;10.842;2024-01-15T08:16:49;4.70;99.90
23291;DHT22;11814;44.686;10.842;2024-01-15T08:19:15;4.70;99.90
23291;DHT22;11814;44.686;10.842;2024-01-15T08:21:40;4.70;99.90
23291;DHT22;11814;44.686;10.842;2024-01-15T08:24:06;4.70;99.90
23291;DHT22;11814;44.686;10.842;2024-01-15T08:26:32;4.80;99.90
23291;DHT22;11814;44.686;10.842;2024-01-15T08:28:58;4.80;99.90
23291;DHT22;11814;44.686;10.842;2024-01-15T08:31:24;4.80;99.90
23291;DHT22;11814;44.686;10.842;2024-01-15T08:33:50;4.80;99.90
23291;DHT22;11814;44.686;10.842;2024-01-15T08:36:16;4.90;99.90
23291;DHT22;11814;44.686;10.842;2024-01-15T08:38:41;4.90;99.90
23291;DHT22;11814;44.686;10.842;2024-01-15T08:41:07;4.90;99.90
23291;DHT22;11814;44.686;10.842;2024-01-15T08:43:34;5.00;99.90
23291;DHT22;11814;44.686;10.842;2024-01-15T08:46:00;5.10;99.90
23291;DHT22;11814;44.686;10.842;2024-01-15T08:48:26;5.10;99.90
23291;DHT22;11814;44.686;10.842;2024-01-15T08:50:53;5.20;99.90
23291;DHT22;11814;44.686;10.842;2024-01-15T08:53:19;5.30;99.90
23291;DHT22;11814;44.686;10.842;2024-01-15T08:55:44;5.30;99.90
23291;DHT22;11814;44.686;10.842;2024-01-15T08:58:10;5.40;99.90
23291;DHT22;11814;44.686;10.842;2024-01-15T09:00:36;5.40;99.90
23291;DHT22;11814;44.686;10.842;2024-01-15T09:03:02;5.50;99.90
23291;DHT22;11814;44.686;10.842;2024-01-15T09:05:27;5.50;99.90
23291;DHT22;11814;44.686;10.842;2024-01-15T09:07:54;5.60;99.90
23291;DHT22;11814;44.686;10.842;2024-01-15T09:10:20;5.60;99.90
23291;DHT22;11814;44.686;10.842;2024-01-15T09:12:46;5.60;99.90
23291;DHT22;11814;44.686;10.842;2024-01-15T09:15:12;5.70;99.90
23291;DHT22;11814;44.686;10.842;2024-01-15T09:17:38;5.80;99.90
23291;DHT22;11814;44.686;10.842;2024-01-15T09:20:04;5.90;99.90
23291;DHT22;11814;44.686;10.842;2024-01-15T09:22:31;5.90;99.90
23291;DHT22;11814;44.686;10.842;2024-01-15T09:24:59;6.00;99.90
23291;DHT22;11814;44.686;10.842;2024-01-15T09:27:25;6.10;99.90
23291;DHT22;11814;44.686;10.842;2024-01-15T09:29:52;6.20;99.90
23291;DHT22;11814;44.686;10.842;2024-01-15T09:32:18;6.20;99.90
23291;DHT22;11814;44.686;10.842;2024-01-15T09:34:44;6.20;99.90
23291;DHT22;11814;44.686;10.842;2024-01-15T09:37:09;6.20;99.90
23291;DHT22;11814;44.686;10.842;2024-01-15T09:39:35;6.30;99.90
23291;DHT22;11814;44.686;10.842;2024-01-15T09:42:02;6.40;99.90
23291;DHT22;11814;44.686;10.842;2024-01-15T09:44:28;6.40;99.90
23291;DHT22;11814;44.686;10.842;2024-01-15T09:46:55;6.50;99.90
23291;DHT22;11814;44.686;10.842;2024-01-15T09:49:21;6.60;99.90
23291;DHT22;11814;44.686;10.842;2024-01-15T09:51:47;6.90;99.90
23291;DHT22;11814;44.686;10.842;2024-01-15T09:54:13;6.90;99.90
23291;DHT22;11814;44.686;10.842;2024-01-15T09:56:46;7.00;99.90
23291;DHT22;11814;44.686;10.842;2024-01-15T09:59:18;7.20;99.90
23291;DHT22;11814;44.686;10.842;2024-01-15T10:01:45;7.30;99.90
23291;DHT22;11814;44.686;10.842;2024-01-15T10:04:13;7.50;99.90
23291;DHT22;11814;44.686;10.842;2024-01-15T10:06:44;7.60;99.90
23291;DHT22;11814;44.686;10.842;2024-01-15T10:09:13;7.60;99.90
23291;DHT22;11814;44.686;10.842;2024-01-15T10:11:43;7.60;99.90
23291;DHT22;11814;44.686;10.842;2024-01-15T10:14:09;7.70;99.90
23291;DHT22;11814;44.686;10.842;2024-01-15T10:16:38;7.90;99.90
23291;DHT22;11814;44.686;10.842;2024-01-15T10:19:04;8.40;99.90
23291;DHT22;11814;44.686;10.842;2024-01-15T10:21:32;9.20;99.90
23291;DHT22;11814;44.686;10.842;2024-01-15T10:24:00;9.60;99.90
23291;DHT22;11814;44.686;10.842;2024-01-15T10:26:26;10.00;99.90
23291;DHT22;11814;44.686;10.842;2024-01-15T10:28:52;10.20;99.90
23291;DHT22;11814;44.686;10.842;2024-01-15T10:31:20;10.50;99.90
23291;DHT22;11814;44.686;10.842;2024-01-15T10:33:47;11.00;99.90
23291;DHT22;11814;44.686;10.842;2024-01-15T10:36:14;11.20;99.90
23291;DHT22;11814;44.686;10.842;2024-01-15T10:38:42;11.50;99.90
23291;DHT22;11814;44.686;10.842;2024-01-15T10:41:08;11.70;98.20
23291;DHT22;11814;44.686;10.842;2024-01-15T10:43:34;12.30;97.00
23291;DHT22;11814;44.686;10.842;2024-01-15T10:46:00;13.00;96.20
23291;DHT22;11814;44.686;10.842;2024-01-15T10:48:26;13.80;94.30
23291;DHT22;11814;44.686;10.842;2024-01-15T10:50:54;14.70;92.10
23291;DHT22;11814;44.686;10.842;2024-01-15T10:53:20;15.60;90.50
23291;DHT22;11814;44.686;10.842;2024-01-15T10:55:47;16.40;85.30
23291;DHT22;11814;44.686;10.842;2024-01-15T10:58:14;16.90;81.10
23291;DHT22;11814;44.686;10.842;2024-01-15T11:00:40;17.40;77.60
23291;DHT22;11814;44.686;10.842;2024-01-15T11:03:06;17.80;75.00
23291;DHT22;11814;44.686;10.842;2024-01-15T11:05:42;18.30;72.70
23291;DHT22;11814;44.686;10.842;2024-01-15T11:08:09;18.60;70.10
23291;DHT22;11814;44.686;10.842;2024-01-15T11:10:50;18.90;67.80
23291;DHT22;11814;44.686;10.842;2024-01-15T11:13:21;19.10;66.20
23291;DHT22;11814;44.686;10.842;2024-01-15T11:16:04;19.40;64.70
23291;DHT22;11814;44.686;10.842;2024-01-15T11:18:34;19.70;63.30
23291;DHT22;11814;44.686;10.842;2024-01-15T11:23:45;20.10;60.60
23291;DHT22;11814;44.686;10.842;2024-01-15T11:26:37;20.20;59.90
23291;DHT22;11814;44.686;10.842;2024-01-15T11:31:57;20.50;59.10
23291;DHT22;11814;44.686;10.842;2024-01-15T11:34:56;20.60;57.60
23291;DHT22;11814;44.686;10.842;2024-01-15T11:37:24;20.70;56.70
23291;DHT22;11814;44.686;10.842;2024-01-15T11:40:02;20.60;56.70
23291;DHT22;11814;44.686;10.842;2024-01-15T11:42:29;20.50;55.90
23291;DHT22;11814;44.686;10.842;2024-01-15T11:44:55;20.50;56.40
23291;DHT22;11814;44.686;10.842;2024-01-15T11:50:08;20.80;55.40
23291;DHT22;11814;44.686;10.842;2024-01-15T11:52:36;20.70;55.20
23291;DHT22;11814;44.686;10.842;2024-01-15T11:55:11;20.60;55.20
23291;DHT22;11814;44.686;10.842;2024-01-15T11:57:54;20.50;54.70
23291;DHT22;11814;44.686;10.842;2024-01-15T12:00:24;20.40;54.70
23291;DHT22;11814;44.686;10.842;2024-01-15T12:02:50;20.50;54.80
23291;DHT22;11814;44.686;10.842;2024-01-15T12:05:19;20.50;54.80
23291;DHT22;11814;44.686;10.842;2024-01-15T12:07:47;20.50;55.60
23291;DHT22;11814;44.686;10.842;2024-01-15T12:10:20;20.70;54.50
23291;DHT22;11814;44.686;10.842;2024-01-15T12:12:59;20.80;54.40
23291;DHT22;11814;44.686;10.842;2024-01-15T12:15:26;20.80;54.10
23291;DHT22;11814;44.686;10.842;2024-01-15T12:17:54;20.80;53.90
23291;DHT22;11814;44.686;10.842;2024-01-15T12:20:20;20.60;54.00
23291;DHT22;11814;44.686;10.842;2024-01-15T12:22:45;20.60;54.60
23291;DHT22;11814;44.686;10.842;2024-01-15T12:25:11;20.50;53.60
23291;DHT22;11814;44.686;10.842;2024-01-15T12:27:37;20.40;53.60
23291;DHT22;11814;44.686;10.842;2024-01-15T12:30:03;20.30;53.50
23291;DHT22;11814;44.686;10.842;2024-01-15T12:32:29;20.20;53.70
23291;DHT22;11814;44.686;10.842;2024-01-15T12:34:55;20.20;53.60
23291;DHT22;11814;44.686;10.842;2024-01-15T12:37:23;20.00;53.50
23291;DHT22;11814;44.686;10.842;2024-01-15T12:39:49;19.90;53.80
23291;DHT22;11814;44.686;10.842;2024-01-15T12:42:15;19.80;54.10
23291;DHT22;11814;44.686;10.842;2024-01-15T12:44:42;19.70;54.50
23291;DHT22;11814;44.686;10.842;2024-01-15T12:47:08;19.50;54.20
23291;DHT22;11814;44.686;10.842;2024-01-15T12:49:39;19.30;54.80
23291;DHT22;11814;44.686;10.842;2024-01-15T12:52:09;19.10;55.00
23291;DHT22;11814;44.686;10.842;2024-01-15T12:54:35;18.90;55.30
23291;DHT22;11814;44.686;10.842;2024-01-15T12:57:00;18.70;55.70
23291;DHT22;11814;44.686;10.842;2024-01-15T12:59:26;18.40;55.90
23291;DHT22;11814;44.686;10.842;2024-01-15T13:01:52;18.00;56.70
23291;DHT22;11814;44.686;10.842;2024-01-15T13:04:22;17.80;57.60
23291;DHT22;11814;44.686;10.842;2024-01-15T13:06:48;17.50;58.20
23291;DHT22;11814;44.686;10.842;2024-01-15T13:09:14;17.20;58.70
23291;DHT22;11814;44.686;10.842;2024-01-15T13:11:40;16.90;59.40
23291;DHT22;11814;44.686;10.842;2024-01-15T13:14:06;16.70;60.00
23291;DHT22;11814;44.686;10.842;2024-01-15T13:16:31;16.50;60.40
23291;DHT22;11814;44.686;10.842;2024-01-15T13:18:57;16.30;61.00
23291;DHT22;11814;44.686;10.842;2024-01-15T13:21:24;16.00;61.80
23291;DHT22;11814;44.686;10.842;2024-01-15T13:23:50;15.80;62.60
23291;DHT22;11814;44.686;10.842;2024-01-15T13:26:16;15.70;63.40
23291;DHT22;11814;44.686;10.842;2024-01-15T13:28:43;15.60;64.00
23291;DHT22;11814;44.686;10.842;2024-01-15T13:31:12;15.40;64.50
23291;DHT22;11814;44.686;10.842;2024-01-15T13:33:38;15.20;64.80
23291;DHT22;11814;44.686;10.842;2024-01-15T13:36:04;15.10;65.50
23291;DHT22;11814;44.686;10.842;2024-01-15T13:38:33;14.90;65.60
23291;DHT22;11814;44.686;10.842;2024-01-15T13:41:02;14.80;66.10
23291;DHT22;11814;44.686;10.842;2024-01-15T13:43:28;14.70;66.70
23291;DHT22;11814;44.686;10.842;2024-01-15T13:45:53;14.60;67.00
23291;DHT22;11814;44.686;10.842;2024-01-15T13:48:20;14.50;67.30
23291;DHT22;11814;44.686;10.842;2024-01-15T13:50:45;14.40;67.60
23291;DHT22;11814;44.686;10.842;2024-01-15T13:53:11;14.40;68.20
23291;DHT22;11814;44.686;10.842;2024-01-15T13:55:37;14.40;68.30
23291;DHT22;11814;44.686;10.842;2024-01-15T13:58:02;14.30;68.50
23291;DHT22;11814;44.686;10.842;2024-01-15T14:00:31;14.30;68.50
23291;DHT22;11814;44.686;10.842;2024-01-15T14:02:57;14.20;68.60
23291;DHT22;11814;44.686;10.842;2024-01-15T14:05:23;14.10;69.00
23291;DHT22;11814;44.686;10.842;2024-01-15T14:07:49;14.00;69.40
23291;DHT22;11814;44.686;10.842;2024-01-15T14:10:14;13.90;69.50
23291;DHT22;11814;44.686;10.842;2024-01-15T14:12:40;13.80;69.80
23291;DHT22;11814;44.686;10.842;2024-01-15T14:15:09;13.70;70.20
23291;DHT22;11814;44.686;10.842;2024-01-15T14:17:34;13.70;70.60
23291;DHT22;11814;44.686;10.842;2024-01-15T14:20:00;13.50;70.60
23291;DHT22;11814;44.686;10.842;2024-01-15T14:22:25;13.40;70.90
23291;DHT22;11814;44.686;10.842;2024-01-15T14:24:51;13.40;71.20
23291;DHT22;11814;44.686;10.842;2024-01-15T14:27:17;13.20;71.40
23291;DHT22;11814;44.686;10.842;2024-01-15T14:29:43;13.10;71.60
23291;DHT22;11814;44.686;10.842;2024-01-15T14:32:09;13.10;72.00
23291;DHT22;11814;44.686;10.842;2024-01-15T14:34:34;13.00;72.50
23291;DHT22;11814;44.686;10.842;2024-01-15T14:37:02;12.80;72.60
23291;DHT22;11814;44.686;10.842;2024-01-15T14:39:28;12.70;73.70
23291;DHT22;11814;44.686;10.842;2024-01-15T14:41:53;12.60;73.40
23291;DHT22;11814;44.686;10.842;2024-01-15T14:44:19;12.50;73.80
23291;DHT22;11814;44.686;10.842;2024-01-15T14:46:45;12.40;74.30
23291;DHT22;11814;44.686;10.842;2024-01-15T14:49:11;12.40;74.80
23291;DHT22;11814;44.686;10.842;2024-01-15T14:51:37;12.30;75.00
23291;DHT22;11814;44.686;10.842;2024-01-15T14:54:02;12.20;75.20
23291;DHT22;11814;44.686;10.842;2024-01-15T14:56:28;12.10;75.40
23291;DHT22;11814;44.686;10.842;2024-01-15T14:58:54;12.10;75.70
23291;DHT22;11814;44.686;10.842;2024-01-15T15:01:20;12.00;75.90
23291;DHT22;11814;44.686;10.842;2024-01-15T15:03:45;12.00;76.20
23291;DHT22;11814;44.686;10.842;2024-01-15T15:06:11;11.90;76.60
23291;DHT22;11814;44.686;10.842;2024-01-15T15:08:37;11.70;77.00
23291;DHT22;11814;44.686;10.842;2024-01-15T15:11:04;11.70;77.30
23291;DHT22;11814;44.686;10.842;2024-01-15T15:13:29;11.70;77.80
23291;DHT22;11814;44.686;10.842;2024-01-15T15:15:55;11.50;77.80
23291;DHT22;11814;44.686;10.842;2024-01-15T15:18:21;11.40;78.20
23291;DHT22;11814;44.686;10.842;2024-01-15T15:20:47;11.30;78.60
23291;DHT22;11814;44.686;10.842;2024-01-15T15:23:13;11.20;78.80
23291;DHT22;11814;44.686;10.842;2024-01-15T15:25:39;11.20;79.20
23291;DHT22;11814;44.686;10.842;2024-01-15T15:28:04;11.10;80.10
23291;DHT22;11814;44.686;10.842;2024-01-15T15:30:31;11.00;79.60